createdAt,value
2022-11-07T00:23:36.845Z,81.5
2022-11-07T00:51:57.606Z,79.45
2022-11-07T01:20:23.496Z,79.4
2022-11-07T01:48:50.028Z,80.21
2022-11-07T02:17:13.987Z,83.1
2022-11-07T02:45:38.358Z,83.68
2022-11-07T03:14:01.467Z,84.61
2022-11-07T03:42:25.576Z,85.63
2022-11-07T04:10:49.132Z,86.46
2022-11-07T04:39:12.706Z,86.4
2022-11-07T05:07:38.710Z,86.29
2022-11-07T05:36:03.131Z,86.82
2022-11-07T06:04:27.323Z,87.04
2022-11-07T06:32:54.464Z,86.55
2022-11-07T07:01:21.783Z,82.7
2022-11-07T07:29:46.697Z,79.48
2022-11-07T07:58:14.075Z,75.54
2022-11-07T08:26:46.151Z,74.22
2022-11-07T08:55:11.049Z,73.37
2022-11-07T09:23:28.167Z,73.39
2022-11-07T09:51:53.474Z,71.6
2022-11-07T10:20:25.693Z,70.35
2022-11-07T10:48:38.373Z,69.25
2022-11-07T11:17:06.129Z,66.34
2022-11-07T11:45:28.721Z,65.68
2022-11-07T12:13:50.757Z,66.32
2022-11-07T12:42:15.150Z,65.99
2022-11-07T13:10:37.270Z,64.49
2022-11-07T13:38:59.843Z,65.9
2022-11-07T14:07:27.156Z,68.11
2022-11-07T14:35:36.330Z,69.75
2022-11-07T15:03:51.533Z,72.12
2022-11-07T15:32:12.692Z,72.4
2022-11-07T16:00:33.303Z,72.01
2022-11-07T16:28:49.072Z,72.91
2022-11-07T16:57:06.928Z,73.88
2022-11-07T17:25:23.862Z,74.65
2022-11-07T17:53:46.349Z,74.88
2022-11-07T18:22:05.319Z,76.18
2022-11-07T18:50:29.934Z,77.25
2022-11-07T19:18:37.802Z,78.35
2022-11-07T19:46:56.010Z,80.49
2022-11-07T20:15:14.390Z,81.87
2022-11-07T20:43:40.118Z,83.03
2022-11-07T21:11:53.301Z,83.76
2022-11-07T21:40:14.019Z,85.67
2022-11-07T22:08:35.962Z,86.26
2022-11-07T22:36:56.981Z,86.74
2022-11-07T23:05:18.553Z,86.02
2022-11-07T23:33:37.471Z,85.42
